logo
Search for airport 
image banner adimage banner adimage banner ad
image banner ad

EHQN - Hollandse Kust Noord / Hkn (Converter Platform)

Located in , Netherlands

ICAO - , IATA -

Data provided by Airmate  

General information

Coordinates: N52°39'14" E4°15'43"
Elevation is feet MSL.
 
View others Airports in Noord-Holland

Operational data

Special qualification required
Current time UTC:
Current local time:
Weather at : EHKD - Den Helder/De Kooy ( 46 km )
METAR: EHKD 280158Z AUTO 18005KT 9999 SCT014 SCT017 OVC100 11/09 Q1016 GRN
TAF: TAF EHKD 280046Z 2801/2813 22007KT CAVOK TEMPO 2804/2808 FEW010 SCT015
View NOTAMs / SUP AIP / TFR affecting this airport [VIEW]
Communications frequencies: [VIEW]

Runways:

Airport contact information

Address: Netherlands

Satellite view of EHQN